Time;durP1;ratioP1;P1;durP2;ratioP2;P2;SDS_P1;SDS_P2;PMS_P1;PMS_P2;Temp;Humidity;BMP_temperature;BMP_pressure;BME280_temperature;BME280_humidity;BME280_pressure;Samples;Min_cycle;Max_cycle;Signal;HPM_P1;HPM_P2
2023/05/18 05:25:08;;;;;;;10.85;5.22;;;7.60;99.90;;;;;;6999475;23;20042;-93
2023/05/18 05:28:10;;;;;;;9.60;5.70;;;7.70;99.90;;;;;;6242965;28;20041;-90
2023/05/18 05:31:12;;;;;;;12.40;6.10;;;7.80;99.90;;;;;;6241660;28;20050;-91
2023/05/18 05:34:14;;;;;;;10.40;6.20;;;7.80;99.90;;;;;;6231182;28;20038;-87
2023/05/18 05:37:16;;;;;;;11.00;6.25;;;7.80;99.90;;;;;;6252177;28;20049;-92
2023/05/18 05:40:20;;;;;;;11.80;6.30;;;7.90;99.90;;;;;;6252827;28;20478;-93
2023/05/18 05:43:22;;;;;;;14.50;6.65;;;8.00;99.90;;;;;;6252607;28;20046;-90
2023/05/18 05:46:24;;;;;;;12.00;6.18;;;8.00;99.90;;;;;;6251820;28;20042;-89
2023/05/18 05:49:26;;;;;;;9.80;5.57;;;8.10;99.90;;;;;;6234708;28;20122;-93
2023/05/18 05:52:28;;;;;;;12.23;6.00;;;8.10;99.90;;;;;;6248126;28;20061;-93
2023/05/18 05:55:31;;;;;;;13.43;6.55;;;8.30;99.90;;;;;;6258893;23;20041;-91
2023/05/18 05:58:33;;;;;;;13.85;6.30;;;8.20;99.90;;;;;;6189608;28;20051;-93
2023/05/18 06:01:35;;;;;;;15.30;6.35;;;8.20;99.90;;;;;;6192261;28;20042;-93
2023/05/18 06:04:37;;;;;;;11.02;6.07;;;8.40;99.90;;;;;;6186769;28;20062;-91
2023/05/18 06:07:38;;;;;;;10.02;5.95;;;8.50;99.90;;;;;;6177873;28;20058;-84
2023/05/18 06:10:42;;;;;;;14.55;6.30;;;8.60;99.90;;;;;;6161956;28;20055;-84
2023/05/18 06:13:44;;;;;;;15.35;6.22;;;8.70;99.90;;;;;;6154155;29;20043;-85
2023/05/18 06:16:45;;;;;;;10.68;5.70;;;8.70;99.90;;;;;;6171130;28;20515;-89
2023/05/18 06:19:47;;;;;;;12.45;6.43;;;8.80;99.90;;;;;;6227877;23;21447;-72
2023/05/18 06:22:49;;;;;;;12.10;5.75;;;8.80;99.90;;;;;;6248116;28;20045;-72
2023/05/18 06:25:52;;;;;;;12.32;5.18;;;8.80;99.90;;;;;;6249105;28;20049;-72
2023/05/18 06:28:54;;;;;;;11.75;5.28;;;9.00;99.90;;;;;;6242237;28;20058;-73
2023/05/18 06:31:57;;;;;;;12.95;6.10;;;9.00;99.90;;;;;;6212367;28;20050;-74
2023/05/18 06:35:01;;;;;;;11.05;5.57;;;9.10;99.90;;;;;;6253395;28;20115;-73
2023/05/18 06:38:03;;;;;;;13.60;5.43;;;9.20;99.90;;;;;;6250399;28;20486;-72
2023/05/18 06:41:06;;;;;;;11.25;5.72;;;9.10;99.90;;;;;;6253643;28;20056;-74
2023/05/18 06:44:10;;;;;;;11.88;5.60;;;9.20;99.90;;;;;;6261824;28;20052;-71
2023/05/18 06:47:11;;;;;;;14.65;7.97;;;9.30;99.90;;;;;;6260946;28;20050;-73
2023/05/18 06:50:14;;;;;;;10.80;5.70;;;9.30;99.90;;;;;;6262888;28;20152;-72
2023/05/18 06:53:15;;;;;;;10.88;4.97;;;9.40;99.90;;;;;;6249861;28;20053;-72
2023/05/18 06:56:21;;;;;;;11.45;4.90;;;9.50;99.90;;;;;;6233128;28;20046;-72
2023/05/18 06:59:23;;;;;;;10.30;4.85;;;9.40;99.90;;;;;;6250256;28;20260;-72
2023/05/18 07:02:25;;;;;;;13.38;5.40;;;9.60;99.90;;;;;;6241231;28;20041;-75
2023/05/18 07:05:27;;;;;;;11.18;4.65;;;9.60;99.90;;;;;;6247995;28;20411;-73
2023/05/18 07:08:29;;;;;;;11.48;4.43;;;9.70;99.90;;;;;;6250409;28;20144;-73
2023/05/18 07:11:32;;;;;;;11.55;4.75;;;9.80;99.90;;;;;;6241135;28;20054;-73
2023/05/18 07:14:35;;;;;;;10.05;4.32;;;9.80;99.90;;;;;;6240829;28;20049;-72
2023/05/18 07:17:38;;;;;;;11.70;4.78;;;9.80;99.90;;;;;;6247314;28;20041;-72
2023/05/18 07:20:40;;;;;;;11.27;4.30;;;9.90;99.90;;;;;;6249875;28;20049;-74
2023/05/18 07:23:43;;;;;;;10.27;4.13;;;10.00;99.90;;;;;;6251126;28;20120;-73
2023/05/18 07:26:46;;;;;;;10.73;4.72;;;10.10;99.90;;;;;;6254963;28;20049;-73
2023/05/18 07:29:48;;;;;;;12.18;4.35;;;10.10;99.90;;;;;;6259867;28;20056;-74
2023/05/18 07:32:50;;;;;;;13.40;4.50;;;10.20;99.90;;;;;;6259872;28;20045;-73
2023/05/18 07:35:52;;;;;;;10.85;4.18;;;10.30;99.90;;;;;;6260578;28;20100;-73
2023/05/18 07:38:56;;;;;;;12.38;4.75;;;10.40;99.90;;;;;;6261009;28;20048;-72
2023/05/18 07:41:59;;;;;;;10.05;4.13;;;10.60;99.90;;;;;;6259803;28;20536;-72
2023/05/18 07:45:01;;;;;;;10.52;4.63;;;10.70;99.90;;;;;;6259489;28;20463;-72
2023/05/18 07:48:03;;;;;;;11.23;4.70;;;10.80;99.90;;;;;;6255523;28;20052;-73
2023/05/18 07:51:06;;;;;;;8.63;4.25;;;10.80;99.90;;;;;;6249381;28;20108;-72
2023/05/18 07:54:08;;;;;;;12.00;4.78;;;10.90;99.70;;;;;;6237202;28;20059;-74
2023/05/18 07:57:11;;;;;;;10.88;4.47;;;11.00;99.60;;;;;;6250564;28;20051;-72
2023/05/18 08:00:16;;;;;;;11.68;4.85;;;11.10;99.60;;;;;;6254254;28;20057;-73
2023/05/18 08:03:19;;;;;;;13.20;4.75;;;11.20;99.70;;;;;;6238761;28;20398;-73
2023/05/18 08:06:21;;;;;;;14.20;4.70;;;11.30;99.70;;;;;;6251769;28;20041;-73
2023/05/18 08:09:23;;;;;;;9.50;4.50;;;11.30;99.50;;;;;;6239657;28;20367;-73
2023/05/18 08:12:27;;;;;;;11.52;4.85;;;11.50;99.60;;;;;;6237485;28;20055;-73
2023/05/18 08:15:29;;;;;;;10.98;4.50;;;11.60;99.20;;;;;;6249775;28;20126;-73
2023/05/18 08:18:31;;;;;;;11.15;5.10;;;11.60;99.10;;;;;;6250684;28;20052;-71
2023/05/18 08:21:33;;;;;;;12.40;4.65;;;11.70;98.20;;;;;;6246659;28;20414;-75
2023/05/18 08:24:35;;;;;;;13.82;4.55;;;11.80;98.60;;;;;;6247763;28;20046;-75
2023/05/18 08:27:38;;;;;;;10.02;4.20;;;11.90;97.80;;;;;;6249878;28;20048;-76
2023/05/18 08:30:40;;;;;;;12.90;4.60;;;12.00;98.00;;;;;;6248095;28;20056;-76
2023/05/18 08:33:42;;;;;;;12.90;4.70;;;12.10;98.10;;;;;;6250058;28;20514;-74
2023/05/18 08:36:44;;;;;;;11.30;4.93;;;12.20;97.50;;;;;;6249622;28;20053;-74
2023/05/18 08:39:46;;;;;;;10.32;5.10;;;12.20;97.40;;;;;;6256298;28;20100;-74
2023/05/18 08:43:03;;;;;;;8.93;4.38;;;12.30;97.10;;;;;;6235653;28;20045;-74
2023/05/18 08:46:11;;;;;;;11.05;4.93;;;12.50;97.00;;;;;;6244914;28;20501;-73
2023/05/18 08:49:18;;;;;;;11.23;3.75;;;12.60;96.20;;;;;;6231941;28;20054;-72
2023/05/18 08:52:26;;;;;;;13.05;4.72;;;12.70;95.80;;;;;;6249674;28;20049;-73
2023/05/18 08:55:35;;;;;;;9.40;3.78;;;12.80;95.40;;;;;;6236052;28;20045;-73
2023/05/18 08:58:48;;;;;;;10.23;4.03;;;12.90;94.90;;;;;;6208746;28;20049;-74
2023/05/18 09:01:51;;;;;;;13.05;4.40;;;13.10;94.30;;;;;;6224598;28;20049;-74
2023/05/18 09:04:56;;;;;;;14.60;6.57;;;13.20;95.00;;;;;;6237706;28;20056;-75
2023/05/18 09:07:58;;;;;;;14.98;5.30;;;13.40;94.20;;;;;;6249213;28;20045;-73
2023/05/18 09:11:02;;;;;;;14.43;5.15;;;13.50;93.20;;;;;;6249013;28;20049;-76
2023/05/18 09:14:06;;;;;;;11.02;4.80;;;13.50;92.40;;;;;;6248886;28;20073;-76
2023/05/18 09:17:07;;;;;;;11.40;4.38;;;13.50;92.50;;;;;;6248569;28;20049;-76
2023/05/18 09:20:10;;;;;;;13.35;4.47;;;13.60;92.00;;;;;;6244727;28;20054;-75
2023/05/18 09:23:12;;;;;;;12.57;4.50;;;13.70;92.00;;;;;;6242847;28;20056;-74
2023/05/18 09:26:14;;;;;;;12.65;3.88;;;13.80;92.10;;;;;;6250332;28;20041;-77
2023/05/18 09:29:20;;;;;;;8.55;3.58;;;13.90;91.00;;;;;;6260776;28;20061;-74
2023/05/18 09:32:22;;;;;;;10.43;3.60;;;14.10;90.30;;;;;;6248948;28;20130;-75
2023/05/18 09:35:25;;;;;;;11.00;3.70;;;14.20;90.40;;;;;;6231526;28;20045;-74
2023/05/18 09:38:28;;;;;;;14.70;3.80;;;14.30;88.60;;;;;;6233368;28;20049;-73
2023/05/18 09:41:30;;;;;;;9.45;3.65;;;14.40;88.30;;;;;;6251362;28;20057;-75
2023/05/18 09:44:34;;;;;;;8.68;3.47;;;14.40;87.10;;;;;;6252359;28;20044;-76
2023/05/18 09:47:36;;;;;;;9.30;3.47;;;14.50;85.50;;;;;;6252927;28;20045;-77
2023/05/18 09:50:38;;;;;;;12.18;3.22;;;14.60;85.10;;;;;;6253284;28;20124;-76
2023/05/18 09:53:40;;;;;;;10.43;3.30;;;14.50;84.60;;;;;;6252871;28;20045;-75
2023/05/18 09:56:45;;;;;;;8.70;3.17;;;14.50;84.20;;;;;;6252486;28;20057;-74
2023/05/18 09:59:56;;;;;;;11.15;3.58;;;14.60;82.90;;;;;;6248962;28;20050;-75
2023/05/18 10:02:59;;;;;;;12.50;4.70;;;14.60;82.00;;;;;;6228536;28;20042;-73
2023/05/18 10:06:05;;;;;;;8.90;3.05;;;14.70;83.80;;;;;;6242911;28;20056;-73
2023/05/18 10:09:15;;;;;;;9.73;3.30;;;14.70;82.90;;;;;;6254364;28;20045;-75
2023/05/18 10:12:21;;;;;;;8.38;3.10;;;14.80;82.00;;;;;;6251782;28;20482;-75
2023/05/18 10:15:25;;;;;;;9.25;3.10;;;14.90;82.80;;;;;;6240979;28;20156;-76
2023/05/18 10:18:29;;;;;;;10.02;4.18;;;14.90;82.10;;;;;;6254269;28;20057;-74
2023/05/18 10:21:33;;;;;;;9.90;2.92;;;15.00;82.20;;;;;;6250861;28;20088;-79
2023/05/18 10:24:39;;;;;;;8.38;3.22;;;14.90;80.00;;;;;;6247261;28;20052;-76
2023/05/18 10:27:43;;;;;;;9.52;2.95;;;15.00;81.50;;;;;;6243827;28;20049;-73
2023/05/18 10:30:46;;;;;;;;;;;15.10;81.80;;;;;;6247008;28;20071;-73
2023/05/18 10:33:51;;;;;;;7.47;3.42;;;15.10;80.60;;;;;;6224226;28;20274;-73
2023/05/18 10:36:55;;;;;;;8.77;3.63;;;15.30;80.50;;;;;;6227504;28;20492;-74
2023/05/18 10:40:00;;;;;;;9.65;2.83;;;15.40;81.80;;;;;;6248892;28;20049;-75
2023/05/18 10:43:04;;;;;;;10.80;3.20;;;15.30;79.20;;;;;;6225982;28;20050;-75
2023/05/18 10:46:08;;;;;;;10.15;3.13;;;15.40;80.60;;;;;;6224927;28;20125;-74
2023/05/18 10:49:13;;;;;;;11.00;3.45;;;15.50;79.20;;;;;;6223721;28;20046;-77
2023/05/18 10:52:17;;;;;;;7.93;3.30;;;15.40;78.10;;;;;;6224888;28;20050;-75
2023/05/18 10:55:19;;;;;;;7.45;3.20;;;15.60;78.50;;;;;;6243708;28;20045;-74
2023/05/18 10:58:23;;;;;;;9.73;3.92;;;15.70;78.50;;;;;;6249480;28;20042;-74
2023/05/18 11:01:27;;;;;;;9.07;3.13;;;15.70;78.60;;;;;;6250821;28;20054;-74
2023/05/18 11:04:29;;;;;;;11.93;3.15;;;15.70;76.30;;;;;;6252415;28;20479;-78
2023/05/18 11:07:32;;;;;;;8.18;3.05;;;15.90;78.10;;;;;;6265317;28;20077;-75
2023/05/18 11:10:39;;;;;;;7.60;2.85;;;16.00;77.80;;;;;;6231509;28;20077;-74
2023/05/18 11:13:46;;;;;;;7.45;2.88;;;16.20;77.60;;;;;;6253035;28;20049;-74
2023/05/18 11:16:49;;;;;;;9.25;2.85;;;16.30;78.80;;;;;;6262323;28;20136;-74
2023/05/18 11:20:14;;;;;;;9.18;2.75;;;16.40;79.80;;;;;;6257590;28;20060;-75
2023/05/18 11:23:19;;;;;;;8.55;3.03;;;16.50;76.50;;;;;;6260293;28;20057;-76
2023/05/18 11:26:28;;;;;;;10.02;3.15;;;16.60;77.50;;;;;;6255977;28;20049;-75
2023/05/18 11:29:35;;;;;;;11.63;2.88;;;16.80;77.50;;;;;;6260813;28;20402;-74
2023/05/18 11:32:38;;;;;;;11.43;3.03;;;16.90;75.40;;;;;;6256410;28;20140;-72
2023/05/18 11:36:02;;;;;;;8.68;3.05;;;17.00;76.60;;;;;;6254048;28;20188;-76
2023/05/18 11:39:05;;;;;;;;;;;17.00;74.30;;;;;;6247881;28;20061;-74
2023/05/18 11:42:09;;;;;;;7.85;3.03;;;17.00;73.80;;;;;;6246469;28;19925;-74
2023/05/18 11:45:13;;;;;;;7.55;2.95;;;17.10;74.40;;;;;;6247322;28;20056;-74
2023/05/18 11:48:16;;;;;;;;;;;17.10;74.20;;;;;;6247818;28;20392;-75
2023/05/18 11:51:18;;;;;;;10.57;2.88;;;17.20;74.40;;;;;;6248962;28;20047;-74
2023/05/18 11:54:23;;;;;;;10.88;2.75;;;17.30;72.30;;;;;;6247013;28;20056;-75
2023/05/18 11:57:27;;;;;;;9.15;3.10;;;17.20;73.40;;;;;;6239758;28;20064;-76
2023/05/18 12:00:31;;;;;;;7.60;2.88;;;17.40;73.50;;;;;;6247028;28;20056;-75
2023/05/18 12:03:35;;;;;;;7.68;2.80;;;17.30;73.10;;;;;;6246626;28;20153;-76
2023/05/18 12:06:38;;;;;;;7.95;2.63;;;17.40;72.70;;;;;;6248903;28;20049;-76
2023/05/18 12:09:45;;;;;;;7.22;2.60;;;17.50;74.00;;;;;;6251715;28;20052;-75
2023/05/18 12:12:50;;;;;;;8.55;2.70;;;17.30;72.60;;;;;;6257717;28;20044;-76
2023/05/18 12:15:52;;;;;;;9.15;2.65;;;17.40;72.00;;;;;;6256267;28;20069;-76
2023/05/18 12:18:57;;;;;;;9.23;2.80;;;17.40;70.60;;;;;;6223615;28;20409;-76
2023/05/18 12:22:01;;;;;;;6.93;2.40;;;17.70;72.70;;;;;;6202919;28;20116;-74
2023/05/18 12:25:04;;;;;;;8.85;3.45;;;17.70;71.90;;;;;;6198181;28;20046;-75
2023/05/18 12:28:06;;;;;;;12.10;3.00;;;18.00;70.90;;;;;;6197929;28;20139;-75
2023/05/18 12:31:09;;;;;;;6.67;2.37;;;17.90;69.40;;;;;;6197327;28;20054;-76
2023/05/18 12:34:12;;;;;;;7.82;2.72;;;18.10;71.00;;;;;;6196711;28;20486;-73
2023/05/18 12:37:15;;;;;;;8.35;2.80;;;18.20;70.70;;;;;;6215921;28;20050;-75
2023/05/18 12:40:18;;;;;;;9.43;2.63;;;18.20;70.20;;;;;;6219958;28;20459;-76
2023/05/18 12:43:20;;;;;;;8.75;2.80;;;18.00;69.20;;;;;;6221120;28;20050;-75
2023/05/18 12:46:23;;;;;;;8.45;2.63;;;17.90;68.50;;;;;;6222866;28;20046;-74
2023/05/18 12:49:27;;;;;;;9.73;2.85;;;17.80;67.70;;;;;;6216493;28;20076;-74
2023/05/18 12:52:29;;;;;;;9.35;2.58;;;18.10;69.30;;;;;;6220871;28;20050;-75
2023/05/18 12:55:31;;;;;;;7.88;2.35;;;18.20;68.10;;;;;;6220900;28;20057;-76
2023/05/18 12:58:33;;;;;;;8.25;2.88;;;18.20;68.50;;;;;;6220752;28;20041;-73
2023/05/18 13:01:42;;;;;;;9.20;2.85;;;18.00;67.00;;;;;;6215883;28;20057;-76
2023/05/18 13:04:45;;;;;;;11.07;3.22;;;17.90;69.80;;;;;;6221196;28;20482;-73
2023/05/18 13:07:48;;;;;;;7.03;2.70;;;17.70;68.90;;;;;;6219300;28;20046;-74
2023/05/18 13:10:50;;;;;;;8.50;3.00;;;17.90;70.10;;;;;;6221869;28;20656;-73
2023/05/18 13:13:59;;;;;;;8.50;2.53;;;17.90;68.70;;;;;;6213217;28;20805;-74
2023/05/18 13:17:01;;;;;;;8.27;2.85;;;17.90;68.50;;;;;;6224454;28;20041;-74
2023/05/18 13:20:13;;;;;;;10.43;2.60;;;18.00;69.00;;;;;;6228568;28;20054;-73
2023/05/18 13:23:17;;;;;;;8.15;2.72;;;17.90;67.70;;;;;;6247906;28;20565;-76
2023/05/18 13:26:21;;;;;;;10.13;2.90;;;17.80;68.80;;;;;;6248766;28;20405;-74
2023/05/18 13:29:23;;;;;;;8.57;2.60;;;17.60;67.10;;;;;;6249166;28;20410;-74
2023/05/18 13:32:26;;;;;;;9.18;2.70;;;17.80;69.00;;;;;;6227347;28;20057;-74
2023/05/18 13:35:29;;;;;;;9.95;2.63;;;17.80;68.90;;;;;;6227181;28;20042;-75
2023/05/18 13:38:34;;;;;;;11.15;2.70;;;17.80;69.80;;;;;;6227802;28;20054;-75
2023/05/18 13:41:36;;;;;;;24.67;4.28;;;17.80;69.10;;;;;;6250887;28;20391;-75
2023/05/18 13:44:38;;;;;;;5.75;2.08;;;18.30;69.40;;;;;;6250468;28;20045;-73
2023/05/18 13:47:41;;;;;;;6.45;2.45;;;18.50;67.50;;;;;;6251585;28;20498;-75
2023/05/18 13:50:45;;;;;;;7.28;2.45;;;18.40;66.80;;;;;;6251783;28;20116;-75
2023/05/18 13:53:46;;;;;;;8.15;2.58;;;18.30;66.40;;;;;;6251400;28;20175;-74
2023/05/18 13:56:48;;;;;;;7.55;2.40;;;18.20;66.10;;;;;;6251697;28;20053;-73
2023/05/18 13:59:51;;;;;;;8.65;2.38;;;18.50;66.30;;;;;;6241278;28;20041;-74
2023/05/18 14:02:53;;;;;;;6.88;2.60;;;18.60;66.00;;;;;;6227419;28;20049;-74
2023/05/18 14:05:56;;;;;;;11.30;2.60;;;18.40;66.30;;;;;;6226975;28;20420;-75
2023/05/18 14:08:58;;;;;;;8.00;2.22;;;18.30;65.10;;;;;;6227981;28;20056;-74
2023/05/18 14:12:00;;;;;;;8.40;2.65;;;18.20;65.50;;;;;;6226725;28;20061;-75
2023/05/18 14:15:02;;;;;;;8.98;2.45;;;18.00;66.00;;;;;;6233128;28;20050;-73
2023/05/18 14:18:05;;;;;;;10.68;2.70;;;17.90;66.10;;;;;;6233088;28;20042;-74
2023/05/18 14:21:08;;;;;;;8.30;2.55;;;17.70;66.10;;;;;;6250868;28;20406;-73
2023/05/18 14:24:10;;;;;;;8.10;2.47;;;17.60;65.80;;;;;;6251101;28;20041;-73
2023/05/18 14:27:12;;;;;;;9.27;2.40;;;17.60;67.60;;;;;;6233643;28;20050;-74
2023/05/18 14:30:14;;;;;;;8.68;2.38;;;17.60;67.50;;;;;;6233207;28;20490;-74
2023/05/18 14:33:16;;;;;;;7.60;2.20;;;17.50;68.00;;;;;;6243112;28;20045;-75
2023/05/18 14:36:20;;;;;;;9.05;2.20;;;17.40;68.00;;;;;;6257090;28;20053;-74
2023/05/18 14:39:21;;;;;;;;;;;17.40;67.70;;;;;;6258719;28;20046;-75
2023/05/18 14:42:23;;;;;;;7.82;2.28;;;17.40;67.20;;;;;;6255887;28;19925;-74
2023/05/18 14:45:25;;;;;;;8.38;3.10;;;17.40;68.00;;;;;;6243106;28;20072;-75
2023/05/18 14:48:27;;;;;;;7.40;2.55;;;17.30;68.10;;;;;;6228006;28;20053;-74
2023/05/18 14:51:31;;;;;;;10.75;2.53;;;17.30;68.90;;;;;;6242218;28;20048;-73
2023/05/18 14:54:32;;;;;;;7.63;2.78;;;17.30;68.50;;;;;;6242973;28;20050;-74
2023/05/18 14:57:34;;;;;;;7.63;2.22;;;17.10;68.10;;;;;;6262198;28;20493;-74
2023/05/18 15:00:36;;;;;;;6.93;2.20;;;17.00;68.50;;;;;;6251662;28;20046;-74
2023/05/18 15:03:38;;;;;;;7.63;2.67;;;17.00;68.20;;;;;;6248896;28;20056;-75
2023/05/18 15:06:42;;;;;;;11.82;2.65;;;17.00;68.60;;;;;;6250713;28;20095;-74
2023/05/18 15:09:43;;;;;;;8.82;2.58;;;17.00;69.90;;;;;;6241441;28;20506;-75
2023/05/18 15:12:46;;;;;;;9.07;2.47;;;17.10;69.70;;;;;;6249829;28;20042;-73
2023/05/18 15:15:48;;;;;;;9.50;2.45;;;17.00;69.20;;;;;;6249211;28;20051;-73
2023/05/18 15:18:51;;;;;;;7.57;2.30;;;17.00;69.90;;;;;;6249629;28;20041;-74
2023/05/18 15:21:54;;;;;;;8.77;2.60;;;17.00;70.30;;;;;;6250719;28;20050;-75
2023/05/18 15:24:56;;;;;;;8.25;2.30;;;16.90;70.60;;;;;;6230251;28;20080;-75
2023/05/18 15:27:59;;;;;;;9.00;2.60;;;16.70;69.70;;;;;;6248184;28;20487;-74
2023/05/18 15:31:00;;;;;;;7.67;2.37;;;16.70;69.80;;;;;;6246059;28;20552;-73
2023/05/18 15:34:02;;;;;;;9.20;2.72;;;16.70;70.50;;;;;;6243894;28;20046;-74
2023/05/18 15:37:06;;;;;;;6.30;2.17;;;16.70;69.90;;;;;;6244928;28;20051;-74
2023/05/18 15:40:09;;;;;;;7.85;2.45;;;16.70;69.60;;;;;;6248212;28;20045;-73
2023/05/18 15:43:11;;;;;;;7.47;2.50;;;16.70;69.50;;;;;;6247433;28;20057;-74
2023/05/18 15:46:13;;;;;;;7.43;2.47;;;16.70;69.60;;;;;;6232915;28;20403;-75
2023/05/18 15:49:15;;;;;;;9.05;2.70;;;16.60;70.60;;;;;;6245583;28;20060;-74
2023/05/18 15:52:18;;;;;;;6.80;2.40;;;16.70;69.60;;;;;;6230467;28;20041;-74
2023/05/18 15:55:20;;;;;;;9.45;2.92;;;16.50;70.50;;;;;;6246416;28;20479;-74
2023/05/18 15:58:22;;;;;;;6.93;2.80;;;16.50;70.00;;;;;;6246215;28;20503;-74
2023/05/18 16:01:24;;;;;;;6.82;2.95;;;16.50;70.10;;;;;;6242704;28;20049;-74
2023/05/18 16:04:26;;;;;;;7.05;2.60;;;16.60;70.10;;;;;;6244320;28;20072;-75
2023/05/18 16:07:29;;;;;;;8.63;2.67;;;16.50;70.50;;;;;;6251798;28;20045;-74
2023/05/18 16:10:31;;;;;;;8.20;2.60;;;16.40;71.30;;;;;;6245351;28;20050;-74
2023/05/18 16:13:33;;;;;;;7.57;2.60;;;16.60;71.40;;;;;;6235627;28;20053;-74
2023/05/18 16:16:34;;;;;;;7.95;2.67;;;16.50;70.70;;;;;;6234232;28;20053;-74
2023/05/18 16:19:36;;;;;;;8.65;2.88;;;16.40;71.80;;;;;;6226576;28;20056;-75
2023/05/18 16:22:39;;;;;;;5.82;2.33;;;16.40;72.30;;;;;;6244774;28;20045;-74
2023/05/18 16:25:42;;;;;;;7.35;2.63;;;16.50;72.30;;;;;;6245428;28;20056;-76
2023/05/18 16:28:45;;;;;;;6.88;2.40;;;16.40;72.50;;;;;;6240112;28;20053;-74
2023/05/18 16:31:47;;;;;;;10.90;2.95;;;16.40;73.10;;;;;;6241851;28;20052;-74
2023/05/18 16:34:49;;;;;;;6.18;2.33;;;16.40;72.90;;;;;;6245167;28;20487;-75
2023/05/18 16:37:52;;;;;;;6.47;2.20;;;16.50;73.00;;;;;;6240858;28;20053;-75
2023/05/18 16:40:54;;;;;;;7.03;2.60;;;16.60;73.70;;;;;;6245156;28;20045;-74
2023/05/18 16:43:56;;;;;;;5.57;2.35;;;16.40;72.40;;;;;;6246813;28;20057;-74
2023/05/18 16:46:58;;;;;;;9.45;2.67;;;16.40;73.10;;;;;;6238583;28;20045;-71
2023/05/18 16:50:00;;;;;;;7.88;2.95;;;16.30;72.50;;;;;;6245069;28;20065;-70
2023/05/18 16:53:03;;;;;;;18.88;7.78;;;16.60;85.70;;;;;;6251762;28;20045;-71
2023/05/18 16:56:06;;;;;;;10.85;3.85;;;16.70;80.20;;;;;;6250771;28;20056;-69
2023/05/18 16:59:08;;;;;;;10.68;3.70;;;16.80;81.90;;;;;;6249310;28;20041;-69
2023/05/18 17:02:11;;;;;;;11.70;4.18;;;16.80;77.40;;;;;;6250940;28;20049;-69
2023/05/18 17:05:15;;;;;;;9.32;2.92;;;17.00;81.10;;;;;;6252600;28;20042;-71
2023/05/18 17:08:19;;;;;;;7.50;2.58;;;17.10;73.80;;;;;;6249168;28;20045;-73
2023/05/18 17:11:22;;;;;;;6.47;2.45;;;17.00;73.50;;;;;;6235391;28;20116;-75
2023/05/18 17:14:24;;;;;;;10.02;2.35;;;16.90;72.50;;;;;;6252727;28;20055;-75
2023/05/18 17:17:26;;;;;;;7.28;2.92;;;16.80;72.90;;;;;;6252315;28;20050;-76
2023/05/18 17:20:27;;;;;;;8.48;2.50;;;16.60;73.80;;;;;;6252505;28;20050;-74
2023/05/18 17:23:31;;;;;;;7.78;2.35;;;16.70;73.80;;;;;;6252255;28;20606;-74
2023/05/18 17:26:33;;;;;;;;;;;16.70;72.10;;;;;;6252992;28;20050;-75
2023/05/18 17:29:35;;;;;;;7.55;2.30;;;16.70;73.30;;;;;;6252588;28;20286;-73
2023/05/18 17:32:37;;;;;;;8.60;2.50;;;16.50;73.40;;;;;;6265635;28;20109;-77
2023/05/18 17:35:39;;;;;;;6.60;2.35;;;16.60;74.80;;;;;;6270036;28;20049;-74
2023/05/18 17:38:42;;;;;;;8.38;2.40;;;16.40;75.40;;;;;;6266834;28;20041;-77
2023/05/18 17:41:44;;;;;;;9.23;2.55;;;16.40;75.20;;;;;;6247524;28;20053;-75
2023/05/18 17:44:46;;;;;;;6.65;2.45;;;16.40;74.00;;;;;;6247722;28;20394;-75
2023/05/18 17:47:48;;;;;;;8.35;2.70;;;16.30;73.80;;;;;;6260918;28;20156;-73
2023/05/18 17:50:50;;;;;;;7.57;2.58;;;16.40;73.90;;;;;;6272569;28;20124;-75
2023/05/18 17:53:55;;;;;;;8.98;2.67;;;16.40;75.70;;;;;;6269772;28;20048;-76
2023/05/18 17:56:57;;;;;;;9.00;2.90;;;16.40;76.30;;;;;;6262470;28;20037;-76
2023/05/18 17:59:59;;;;;;;7.35;2.47;;;16.20;75.50;;;;;;6249631;28;20037;-77
2023/05/18 18:03:01;;;;;;;6.40;2.45;;;16.10;77.80;;;;;;6249182;28;20057;-75
2023/05/18 18:06:02;;;;;;;7.32;2.70;;;16.30;78.70;;;;;;6246426;28;20041;-76
2023/05/18 18:09:06;;;;;;;7.63;2.58;;;16.30;79.50;;;;;;6243776;28;20048;-75
2023/05/18 18:12:09;;;;;;;7.78;3.17;;;16.30;79.50;;;;;;6243499;28;20054;-77
2023/05/18 18:15:11;;;;;;;6.70;2.70;;;16.10;78.80;;;;;;6228410;28;20069;-73
2023/05/18 18:18:13;;;;;;;9.57;2.88;;;16.00;80.30;;;;;;6233315;28;20049;-74
2023/05/18 18:21:16;;;;;;;9.57;3.30;;;16.10;80.70;;;;;;6232731;28;20417;-75
2023/05/18 18:24:20;;;;;;;7.35;2.88;;;16.20;80.60;;;;;;6231993;28;20057;-74
2023/05/18 18:27:22;;;;;;;6.85;2.75;;;16.10;81.00;;;;;;6215063;28;20069;-74
2023/05/18 18:30:24;;;;;;;7.60;3.08;;;16.10;80.10;;;;;;6238661;28;20045;-76
2023/05/18 18:33:26;;;;;;;7.00;2.83;;;16.10;80.10;;;;;;6224321;28;20056;-75
2023/05/18 18:36:28;;;;;;;7.78;2.75;;;16.10;79.90;;;;;;6227689;28;20406;-76
2023/05/18 18:39:31;;;;;;;7.15;3.38;;;16.00;80.40;;;;;;6239409;28;20046;-74
2023/05/18 18:42:33;;;;;;;7.60;2.70;;;16.00;79.80;;;;;;6242078;28;20046;-75
2023/05/18 18:45:35;;;;;;;8.13;3.05;;;15.90;80.40;;;;;;6223707;28;20050;-75
2023/05/18 18:48:37;;;;;;;8.18;2.30;;;15.90;80.70;;;;;;6240765;28;20045;-74
2023/05/18 18:51:42;;;;;;;7.25;2.35;;;15.70;80.90;;;;;;6246423;28;20060;-75
2023/05/18 18:54:45;;;;;;;9.05;2.70;;;15.80;82.30;;;;;;6240712;28;20064;-75
2023/05/18 18:57:47;;;;;;;5.22;2.28;;;15.80;81.70;;;;;;6246298;28;20057;-76
2023/05/18 19:00:48;;;;;;;6.55;2.60;;;15.70;81.50;;;;;;6245367;28;20053;-75
2023/05/18 19:03:51;;;;;;;9.07;2.97;;;15.70;82.00;;;;;;6244386;28;20414;-76
2023/05/18 19:06:54;;;;;;;5.93;2.30;;;15.70;82.10;;;;;;6244647;28;20060;-75
2023/05/18 19:09:58;;;;;;;7.28;2.70;;;15.60;82.00;;;;;;6239313;28;20523;-75
2023/05/18 19:13:04;;;;;;;8.93;3.33;;;15.50;80.70;;;;;;6238224;28;20501;-75
2023/05/18 19:16:06;;;;;;;9.43;2.67;;;15.40;79.40;;;;;;6237676;28;20495;-76
2023/05/18 19:19:08;;;;;;;6.72;2.38;;;15.30;78.80;;;;;;6230053;28;20049;-75
2023/05/18 19:22:10;;;;;;;7.32;2.42;;;15.30;78.80;;;;;;6246582;28;20068;-77
2023/05/18 19:25:13;;;;;;;6.95;2.60;;;15.40;80.00;;;;;;6240758;28;20473;-75
2023/05/18 19:28:15;;;;;;;6.35;2.63;;;15.40;79.20;;;;;;6219275;28;20046;-76
2023/05/18 19:31:17;;;;;;;7.55;2.60;;;15.40;79.00;;;;;;6221769;28;20060;-77
2023/05/18 19:34:19;;;;;;;8.23;2.42;;;15.40;79.30;;;;;;6235761;28;20045;-75
2023/05/18 19:37:21;;;;;;;7.80;2.63;;;15.40;78.40;;;;;;6246281;28;20132;-79
2023/05/18 19:40:25;;;;;;;8.52;2.85;;;15.30;78.90;;;;;;6241557;28;20046;-75
2023/05/18 19:43:27;;;;;;;7.57;2.70;;;15.30;79.00;;;;;;6227724;28;20059;-76
2023/05/18 19:46:29;;;;;;;6.70;2.30;;;15.20;78.40;;;;;;6236402;28;20045;-75
2023/05/18 19:49:31;;;;;;;7.22;2.63;;;15.30;79.10;;;;;;6243595;28;20410;-75
2023/05/18 19:52:33;;;;;;;7.95;2.70;;;15.30;79.10;;;;;;6239272;28;20057;-75
2023/05/18 19:55:37;;;;;;;9.10;2.70;;;15.30;79.20;;;;;;6238883;28;20041;-74
2023/05/18 19:58:39;;;;;;;8.23;2.35;;;15.30;78.40;;;;;;6226647;28;20045;-74
2023/05/18 20:01:41;;;;;;;7.72;2.35;;;15.40;79.50;;;;;;6245273;28;20152;-74
2023/05/18 20:04:43;;;;;;;7.25;2.78;;;15.30;80.50;;;;;;6241509;28;20392;-73
2023/05/18 20:07:45;;;;;;;8.45;3.25;;;15.30;79.70;;;;;;6241398;28;20041;-76
2023/05/18 20:10:49;;;;;;;9.98;3.33;;;15.30;80.50;;;;;;6223489;28;20053;-75
2023/05/18 20:13:50;;;;;;;6.78;2.80;;;15.30;80.00;;;;;;6242599;28;20157;-74
2023/05/18 20:16:54;;;;;;;9.25;3.13;;;15.30;81.20;;;;;;6224110;28;20053;-75
2023/05/18 20:19:56;;;;;;;8.57;3.13;;;15.30;81.60;;;;;;6244022;28;20053;-73
2023/05/18 20:22:58;;;;;;;7.20;2.80;;;15.20;81.70;;;;;;6248654;28;20041;-74
2023/05/18 20:26:02;;;;;;;10.65;2.70;;;15.20;82.20;;;;;;6247370;28;20046;-74
2023/05/18 20:29:03;;;;;;;6.55;2.47;;;15.20;83.00;;;;;;6231685;28;20061;-73
2023/05/18 20:32:06;;;;;;;7.05;2.90;;;15.20;82.50;;;;;;6231102;28;20049;-74
2023/05/18 20:35:08;;;;;;;7.95;2.60;;;15.20;82.90;;;;;;6244436;28;20057;-74
2023/05/18 20:38:11;;;;;;;8.70;2.70;;;15.10;83.70;;;;;;6244984;28;20045;-74
2023/05/18 20:41:16;;;;;;;11.35;3.00;;;14.80;84.00;;;;;;6245277;28;20061;-74
2023/05/18 20:44:21;;;;;;;7.13;2.60;;;14.90;82.80;;;;;;6254239;28;20075;-73
2023/05/18 20:47:23;;;;;;;6.93;2.67;;;14.80;82.50;;;;;;6245281;28;20049;-73
2023/05/18 20:50:25;;;;;;;7.68;2.72;;;14.80;83.90;;;;;;6245212;28;20050;-74
2023/05/18 20:53:27;;;;;;;8.00;2.45;;;14.80;84.60;;;;;;6245027;28;20060;-73
2023/05/18 20:56:31;;;;;;;9.18;2.60;;;14.80;84.90;;;;;;6244953;28;20050;-73
2023/05/18 20:59:33;;;;;;;6.13;2.67;;;14.80;84.40;;;;;;6244766;28;20057;-73
2023/05/18 21:02:36;;;;;;;9.70;2.97;;;14.80;84.40;;;;;;6243998;28;20045;-73
2023/05/18 21:05:38;;;;;;;7.00;2.65;;;14.90;85.50;;;;;;6244764;28;20053;-74
2023/05/18 21:08:41;;;;;;;6.93;2.67;;;14.80;86.20;;;;;;6242581;28;20049;-73
2023/05/18 21:11:44;;;;;;;7.35;2.75;;;14.80;86.60;;;;;;6243901;28;20498;-75
2023/05/18 21:14:46;;;;;;;7.95;2.63;;;14.80;85.30;;;;;;6243514;28;20056;-74